VOZ607 YSSY-YMML
Flight info
| Callsign | VOZ607 |
|---|---|
| Flight time | 1h 13m |
| Altitude | 36000 |
| Route | WOL H65 LEECE Q29 ML |
| Aircraft | B737/M-SDE2E3FGHIRWXY/LB1 |
Departure
| Time | 2026-05-06 23:50 |
|---|---|
| Airport | Sydney Kingsford Smith International Airport (YSSY) |
Arrival
| Time | 2026-05-07 01:03 |
|---|---|
| Airport | Melbourne Airport (YMML) |
| Time | Latitude | Longitude | Altitude | Speed | Heading |
|---|---|---|---|---|---|
| 2026-05-06 23:08 | -33.93596 | 151.17977 | 29 ft | 0 kts | 280° |
| 2026-05-06 23:33 | -33.93600 | 151.18001 | 29 ft | 4 kts | 278° |
| 2026-05-06 23:33 | -33.93602 | 151.18033 | 29 ft | 4 kts | 260° |
| 2026-05-06 23:33 | -33.93593 | 151.18054 | 29 ft | 3 kts | 190° |
| 2026-05-06 23:33 | -33.93608 | 151.18053 | 29 ft | 4 kts | 185° |
| 2026-05-06 23:34 | -33.93623 | 151.18052 | 29 ft | 0 kts | 182° |
| 2026-05-06 23:36 | -33.93631 | 151.18051 | 29 ft | 4 kts | 182° |
| 2026-05-06 23:36 | -33.93663 | 151.18050 | 29 ft | 5 kts | 181° |
| 2026-05-06 23:37 | -33.93696 | 151.18054 | 29 ft | 5 kts | 171° |
| 2026-05-06 23:37 | -33.93727 | 151.18060 | 29 ft | 5 kts | 170° |
| 2026-05-06 23:37 | -33.93758 | 151.18060 | 29 ft | 4 kts | 200° |
| 2026-05-06 23:37 | -33.93778 | 151.18032 | 29 ft | 4 kts | 246° |
| 2026-05-06 23:38 | -33.93789 | 151.17991 | 29 ft | 7 kts | 252° |
| 2026-05-06 23:38 | -33.93802 | 151.17935 | 29 ft | 7 kts | 254° |
| 2026-05-06 23:38 | -33.93817 | 151.17873 | 29 ft | 9 kts | 254° |
| 2026-05-06 23:38 | -33.93834 | 151.17797 | 29 ft | 9 kts | 254° |
| 2026-05-06 23:39 | -33.93852 | 151.17722 | 29 ft | 9 kts | 254° |
| 2026-05-06 23:39 | -33.93896 | 151.17625 | 28 ft | 15 kts | 210° |
| 2026-05-06 23:39 | -33.93994 | 151.17635 | 27 ft | 14 kts | 167° |
| 2026-05-06 23:39 | -33.94089 | 151.17661 | 27 ft | 14 kts | 167° |
| 2026-05-06 23:40 | -33.94188 | 151.17691 | 28 ft | 15 kts | 167° |
| 2026-05-06 23:40 | -33.94286 | 151.17720 | 28 ft | 14 kts | 165° |
| 2026-05-06 23:40 | -33.94390 | 151.17753 | 29 ft | 17 kts | 165° |
| 2026-05-06 23:40 | -33.94506 | 151.17786 | 29 ft | 17 kts | 167° |
| 2026-05-06 23:41 | -33.94619 | 151.17819 | 28 ft | 17 kts | 167° |
| 2026-05-06 23:41 | -33.94736 | 151.17849 | 29 ft | 18 kts | 168° |
| 2026-05-06 23:41 | -33.94855 | 151.17879 | 29 ft | 17 kts | 166° |
| 2026-05-06 23:41 | -33.94970 | 151.17910 | 29 ft | 17 kts | 168° |
| 2026-05-06 23:42 | -33.95079 | 151.17939 | 29 ft | 16 kts | 165° |
| 2026-05-06 23:42 | -33.95120 | 151.18041 | 29 ft | 16 kts | 70° |
| 2026-05-06 23:42 | -33.95089 | 151.18174 | 29 ft | 16 kts | 76° |
| 2026-05-06 23:42 | -33.95063 | 151.18299 | 29 ft | 14 kts | 77° |
| 2026-05-06 23:43 | -33.95043 | 151.18409 | 29 ft | 13 kts | 77° |
| 2026-05-06 23:43 | -33.95075 | 151.18503 | 29 ft | 13 kts | 142° |
| 2026-05-06 23:43 | -33.95144 | 151.18576 | 29 ft | 14 kts | 138° |
| 2026-05-06 23:43 | -33.95228 | 151.18664 | 29 ft | 17 kts | 142° |
| 2026-05-06 23:44 | -33.95355 | 151.18729 | 29 ft | 21 kts | 166° |
| 2026-05-06 23:44 | -33.95496 | 151.18766 | 29 ft | 20 kts | 168° |
| 2026-05-06 23:44 | -33.95623 | 151.18799 | 29 ft | 18 kts | 167° |
| 2026-05-06 23:44 | -33.95742 | 151.18830 | 29 ft | 21 kts | 168° |
| 2026-05-06 23:45 | -33.95897 | 151.18870 | 29 ft | 23 kts | 168° |
| 2026-05-06 23:45 | -33.96050 | 151.18910 | 29 ft | 22 kts | 168° |
| 2026-05-06 23:45 | -33.96199 | 151.18948 | 29 ft | 22 kts | 167° |
| 2026-05-06 23:45 | -33.96343 | 151.18986 | 29 ft | 21 kts | 168° |
| 2026-05-06 23:46 | -33.96484 | 151.19022 | 29 ft | 20 kts | 168° |
| 2026-05-06 23:46 | -33.96620 | 151.19057 | 29 ft | 20 kts | 168° |
| 2026-05-06 23:46 | -33.96753 | 151.19069 | 29 ft | 19 kts | 189° |
| 2026-05-06 23:46 | -33.96882 | 151.19080 | 29 ft | 18 kts | 167° |
| 2026-05-06 23:47 | -33.97005 | 151.19112 | 29 ft | 18 kts | 168° |
| 2026-05-06 23:47 | -33.97110 | 151.19155 | 29 ft | 10 kts | 132° |
| 2026-05-06 23:47 | -33.97120 | 151.19229 | 28 ft | 9 kts | 81° |
| 2026-05-06 23:47 | -33.97104 | 151.19314 | 28 ft | 13 kts | 77° |
| 2026-05-06 23:48 | -33.97036 | 151.19365 | 24 ft | 10 kts | 351° |
| 2026-05-06 23:48 | -33.97021 | 151.19361 | 28 ft | 0 kts | 348° |
| 2026-05-06 23:49 | -33.96997 | 151.19356 | 26 ft | 13 kts | 348° |
| 2026-05-06 23:49 | -33.96651 | 151.19265 | 23 ft | 87 kts | 347° |
| 2026-05-06 23:50 | -33.95857 | 151.19056 | 70 ft | 139 kts | 348° |
| 2026-05-06 23:50 | -33.93678 | 151.18949 | 925 ft | 190 kts | 22° |
| 2026-05-06 23:50 | -33.92676 | 151.20105 | 1404 ft | 216 kts | 68° |
| 2026-05-06 23:51 | -33.92641 | 151.21936 | 1616 ft | 237 kts | 114° |
| 2026-05-06 23:51 | -33.93512 | 151.23642 | 2115 ft | 243 kts | 127° |
| 2026-05-06 23:51 | -33.94124 | 151.25592 | 2729 ft | 262 kts | 98° |
| 2026-05-06 23:51 | -33.93982 | 151.27867 | 3249 ft | 283 kts | 78° |
| 2026-05-06 23:52 | -33.93568 | 151.30232 | 3996 ft | 290 kts | 84° |
| 2026-05-06 23:52 | -33.93482 | 151.32668 | 4845 ft | 294 kts | 90° |
| 2026-05-06 23:52 | -33.93464 | 151.35164 | 5570 ft | 303 kts | 89° |
| 2026-05-06 23:52 | -33.93436 | 151.37701 | 6520 ft | 301 kts | 88° |
| 2026-05-06 23:53 | -33.93389 | 151.40227 | 7428 ft | 304 kts | 86° |
| 2026-05-06 23:53 | -33.93324 | 151.42789 | 8308 ft | 309 kts | 85° |
| 2026-05-06 23:53 | -33.93249 | 151.45392 | 9222 ft | 313 kts | 85° |
| 2026-05-06 23:53 | -33.93170 | 151.48038 | 10139 ft | 317 kts | 84° |
| 2026-05-06 23:54 | -33.93431 | 151.50676 | 10884 ft | 331 kts | 110° |
| 2026-05-06 23:54 | -33.94684 | 151.52997 | 11682 ft | 335 kts | 140° |
| 2026-05-06 23:54 | -33.96630 | 151.54476 | 12492 ft | 332 kts | 166° |
| 2026-05-06 23:54 | -33.98929 | 151.54901 | 12809 ft | 341 kts | 192° |
| 2026-05-06 23:55 | -34.01225 | 151.54136 | 13020 ft | 350 kts | 214° |
| 2026-05-06 23:55 | -34.03212 | 151.52434 | 13483 ft | 350 kts | 232° |
| 2026-05-06 23:55 | -34.04879 | 151.50281 | 14270 ft | 352 kts | 236° |
| 2026-05-06 23:55 | -34.06482 | 151.48043 | 15149 ft | 353 kts | 237° |
| 2026-05-06 23:56 | -34.08077 | 151.45771 | 16023 ft | 355 kts | 238° |
| 2026-05-06 23:56 | -34.09685 | 151.43484 | 16862 ft | 359 kts | 238° |
| 2026-05-06 23:56 | -34.11318 | 151.41177 | 17680 ft | 363 kts | 238° |
| 2026-05-06 23:56 | -34.12974 | 151.38855 | 18472 ft | 367 kts | 238° |
| 2026-05-06 23:57 | -34.14653 | 151.36512 | 19174 ft | 371 kts | 238° |
| 2026-05-06 23:57 | -34.16350 | 151.34154 | 19946 ft | 373 kts | 238° |
| 2026-05-06 23:57 | -34.18064 | 151.31772 | 20520 ft | 381 kts | 238° |
| 2026-05-06 23:57 | -34.19822 | 151.29335 | 21085 ft | 387 kts | 238° |
| 2026-05-06 23:58 | -34.21567 | 151.26907 | 21798 ft | 388 kts | 238° |
| 2026-05-06 23:58 | -34.23344 | 151.24441 | 22508 ft | 390 kts | 239° |
| 2026-05-06 23:58 | -34.25139 | 151.21947 | 23165 ft | 394 kts | 239° |
| 2026-05-06 23:58 | -34.26943 | 151.19441 | 23760 ft | 398 kts | 239° |
| 2026-05-06 23:59 | -34.28767 | 151.16905 | 24288 ft | 401 kts | 239° |
| 2026-05-06 23:59 | -34.30602 | 151.14355 | 24824 ft | 403 kts | 239° |
| 2026-05-06 23:59 | -34.32447 | 151.11787 | 25355 ft | 405 kts | 240° |
| 2026-05-06 23:59 | -34.34302 | 151.09201 | 25875 ft | 409 kts | 240° |
| 2026-05-07 00:00 | -34.36179 | 151.06581 | 26286 ft | 414 kts | 240° |
| 2026-05-07 00:00 | -34.38071 | 151.03938 | 26765 ft | 416 kts | 240° |
| 2026-05-07 00:00 | -34.39982 | 151.01267 | 27091 ft | 423 kts | 241° |
| 2026-05-07 00:00 | -34.41262 | 150.99474 | 27335 ft | 426 kts | 241° |
| 2026-05-07 00:01 | -34.43865 | 150.95837 | 27997 ft | 428 kts | 241° |
| 2026-05-07 00:01 | -34.45818 | 150.93108 | 28502 ft | 429 kts | 241° |
| 2026-05-07 00:01 | -34.47773 | 150.90370 | 28945 ft | 431 kts | 241° |
| 2026-05-07 00:01 | -34.49737 | 150.87616 | 29421 ft | 433 kts | 241° |
| 2026-05-07 00:02 | -34.51049 | 150.85774 | 29702 ft | 435 kts | 242° |
| 2026-05-07 00:02 | -34.53672 | 150.82092 | 30328 ft | 435 kts | 242° |
| 2026-05-07 00:02 | -34.55639 | 150.79335 | 30947 ft | 428 kts | 242° |
| 2026-05-07 00:02 | -34.57481 | 150.76563 | 31617 ft | 417 kts | 245° |
| 2026-05-07 00:03 | -34.59198 | 150.73761 | 32205 ft | 410 kts | 245° |
| 2026-05-07 00:03 | -34.60848 | 150.70969 | 32696 ft | 406 kts | 245° |
| 2026-05-07 00:03 | -34.61955 | 150.69080 | 33013 ft | 405 kts | 245° |
| 2026-05-07 00:03 | -34.63586 | 150.66300 | 33470 ft | 404 kts | 245° |
| 2026-05-07 00:04 | -34.65220 | 150.63535 | 33957 ft | 402 kts | 245° |
| 2026-05-07 00:04 | -34.66852 | 150.60792 | 34364 ft | 400 kts | 244° |
| 2026-05-07 00:04 | -34.68485 | 150.58055 | 34661 ft | 400 kts | 244° |
| 2026-05-07 00:04 | -34.70104 | 150.55345 | 34917 ft | 402 kts | 244° |
| 2026-05-07 00:05 | -34.71753 | 150.52588 | 35201 ft | 402 kts | 244° |
| 2026-05-07 00:05 | -34.73401 | 150.49838 | 35487 ft | 402 kts | 244° |
| 2026-05-07 00:05 | -34.75048 | 150.47087 | 35761 ft | 402 kts | 244° |
| 2026-05-07 00:05 | -34.76700 | 150.44326 | 36023 ft | 403 kts | 243° |
| 2026-05-07 00:06 | -34.80031 | 150.38746 | 36043 ft | 409 kts | 243° |
| 2026-05-07 00:06 | -34.83376 | 150.33142 | 36050 ft | 410 kts | 243° |
| 2026-05-07 00:07 | -34.86734 | 150.27505 | 36062 ft | 412 kts | 243° |
| 2026-05-07 00:07 | -34.90108 | 150.21834 | 36051 ft | 413 kts | 243° |
| 2026-05-07 00:08 | -34.93459 | 150.16189 | 36052 ft | 414 kts | 242° |
| 2026-05-07 00:08 | -34.96830 | 150.10504 | 36127 ft | 414 kts | 242° |
| 2026-05-07 00:09 | -35.00211 | 150.04787 | 36069 ft | 416 kts | 242° |
| 2026-05-07 00:09 | -35.03605 | 149.99044 | 36064 ft | 417 kts | 242° |
| 2026-05-07 00:10 | -35.06997 | 149.93298 | 36074 ft | 418 kts | 242° |
| 2026-05-07 00:10 | -35.10400 | 149.87535 | 36058 ft | 418 kts | 242° |
| 2026-05-07 00:11 | -35.13800 | 149.81765 | 36089 ft | 419 kts | 241° |
| 2026-05-07 00:11 | -35.17205 | 149.75976 | 36080 ft | 420 kts | 241° |
| 2026-05-07 00:12 | -35.20614 | 149.70170 | 36088 ft | 421 kts | 241° |
| 2026-05-07 00:12 | -35.24028 | 149.64346 | 36077 ft | 421 kts | 241° |
| 2026-05-07 00:13 | -35.27440 | 149.58518 | 36117 ft | 422 kts | 240° |
| 2026-05-07 00:13 | -35.30858 | 149.52664 | 36085 ft | 422 kts | 240° |
| 2026-05-07 00:14 | -35.34254 | 149.46845 | 36070 ft | 423 kts | 240° |
| 2026-05-07 00:14 | -35.37694 | 149.40940 | 36062 ft | 423 kts | 240° |
| 2026-05-07 00:15 | -35.41078 | 149.35119 | 36063 ft | 422 kts | 240° |
| 2026-05-07 00:15 | -35.44485 | 149.29247 | 36067 ft | 423 kts | 240° |
| 2026-05-07 00:16 | -35.47897 | 149.23357 | 36061 ft | 424 kts | 240° |
| 2026-05-07 00:16 | -35.51312 | 149.17454 | 36074 ft | 424 kts | 240° |
| 2026-05-07 00:17 | -35.54723 | 149.11545 | 36072 ft | 424 kts | 240° |
| 2026-05-07 00:17 | -35.58131 | 149.05634 | 36095 ft | 425 kts | 240° |
| 2026-05-07 00:18 | -35.61539 | 148.99704 | 36108 ft | 424 kts | 239° |
| 2026-05-07 00:18 | -35.64946 | 148.93791 | 36093 ft | 424 kts | 239° |
| 2026-05-07 00:19 | -35.68312 | 148.87919 | 36110 ft | 423 kts | 239° |
| 2026-05-07 00:19 | -35.71699 | 148.81997 | 36128 ft | 424 kts | 239° |
| 2026-05-07 00:20 | -35.75091 | 148.76061 | 36124 ft | 424 kts | 239° |
| 2026-05-07 00:20 | -35.78478 | 148.70124 | 36111 ft | 423 kts | 239° |
| 2026-05-07 00:21 | -35.81858 | 148.64189 | 36130 ft | 423 kts | 239° |
| 2026-05-07 00:21 | -35.85230 | 148.58259 | 36173 ft | 422 kts | 238° |
| 2026-05-07 00:22 | -35.88600 | 148.52321 | 36151 ft | 422 kts | 238° |
| 2026-05-07 00:22 | -35.91949 | 148.46379 | 36150 ft | 422 kts | 238° |
| 2026-05-07 00:23 | -35.95291 | 148.40430 | 36144 ft | 421 kts | 238° |
| 2026-05-07 00:23 | -35.98616 | 148.34502 | 36169 ft | 420 kts | 238° |
| 2026-05-07 00:24 | -36.01938 | 148.28571 | 36170 ft | 420 kts | 238° |
| 2026-05-07 00:24 | -36.05260 | 148.22630 | 36181 ft | 419 kts | 238° |
| 2026-05-07 00:25 | -36.08570 | 148.16699 | 36176 ft | 419 kts | 237° |
| 2026-05-07 00:25 | -36.11861 | 148.10795 | 36178 ft | 419 kts | 237° |
| 2026-05-07 00:26 | -36.15174 | 148.04864 | 36179 ft | 419 kts | 237° |
| 2026-05-07 00:26 | -36.18488 | 147.98930 | 36169 ft | 419 kts | 237° |
| 2026-05-07 00:27 | -36.21797 | 147.92992 | 36176 ft | 418 kts | 237° |
| 2026-05-07 00:27 | -36.25091 | 147.87067 | 36172 ft | 417 kts | 237° |
| 2026-05-07 00:28 | -36.28379 | 147.81143 | 36181 ft | 417 kts | 237° |
| 2026-05-07 00:28 | -36.31663 | 147.75221 | 36179 ft | 417 kts | 237° |
| 2026-05-07 00:29 | -36.34943 | 147.69287 | 36182 ft | 417 kts | 237° |
| 2026-05-07 00:30 | -36.41470 | 147.57432 | 36196 ft | 417 kts | 236° |
| 2026-05-07 00:30 | -36.44736 | 147.51489 | 36179 ft | 417 kts | 236° |
| 2026-05-07 00:31 | -36.48003 | 147.45528 | 36182 ft | 417 kts | 236° |
| 2026-05-07 00:31 | -36.51269 | 147.39560 | 36178 ft | 417 kts | 236° |
| 2026-05-07 00:32 | -36.54527 | 147.33595 | 36190 ft | 417 kts | 236° |
| 2026-05-07 00:32 | -36.57779 | 147.27636 | 36186 ft | 416 kts | 236° |
| 2026-05-07 00:33 | -36.61031 | 147.21659 | 36183 ft | 416 kts | 236° |
| 2026-05-07 00:33 | -36.64275 | 147.15689 | 36191 ft | 416 kts | 236° |
| 2026-05-07 00:34 | -36.67518 | 147.09710 | 36178 ft | 416 kts | 235° |
| 2026-05-07 00:34 | -36.70756 | 147.03731 | 36187 ft | 415 kts | 235° |
| 2026-05-07 00:35 | -36.73961 | 146.97814 | 36185 ft | 414 kts | 235° |
| 2026-05-07 00:35 | -36.77178 | 146.91869 | 36195 ft | 413 kts | 235° |
| 2026-05-07 00:36 | -36.80380 | 146.85937 | 36206 ft | 412 kts | 234° |
| 2026-05-07 00:36 | -36.83572 | 146.80011 | 36191 ft | 410 kts | 234° |
| 2026-05-07 00:37 | -36.86746 | 146.74110 | 36188 ft | 408 kts | 234° |
| 2026-05-07 00:37 | -36.89904 | 146.68228 | 36197 ft | 407 kts | 234° |
| 2026-05-07 00:38 | -36.93046 | 146.62367 | 36219 ft | 405 kts | 234° |
| 2026-05-07 00:38 | -36.96176 | 146.56518 | 36204 ft | 405 kts | 234° |
| 2026-05-07 00:39 | -36.99321 | 146.50631 | 35564 ft | 412 kts | 234° |
| 2026-05-07 00:39 | -37.00908 | 146.47655 | 34903 ft | 412 kts | 233° |
| 2026-05-07 00:39 | -37.02499 | 146.44670 | 34146 ft | 413 kts | 232° |
| 2026-05-07 00:40 | -37.04096 | 146.41669 | 33243 ft | 414 kts | 231° |
| 2026-05-07 00:40 | -37.05679 | 146.38696 | 32675 ft | 407 kts | 230° |
| 2026-05-07 00:40 | -37.07238 | 146.35755 | 32071 ft | 402 kts | 230° |
| 2026-05-07 00:40 | -37.08767 | 146.32852 | 31454 ft | 398 kts | 229° |
| 2026-05-07 00:41 | -37.10262 | 146.30014 | 30840 ft | 391 kts | 225° |
| 2026-05-07 00:41 | -37.11771 | 146.27219 | 30320 ft | 385 kts | 225° |
| 2026-05-07 00:41 | -37.13242 | 146.24445 | 29688 ft | 378 kts | 225° |
| 2026-05-07 00:41 | -37.14675 | 146.21719 | 29127 ft | 370 kts | 225° |
| 2026-05-07 00:42 | -37.16073 | 146.19048 | 28578 ft | 363 kts | 225° |
| 2026-05-07 00:42 | -37.17450 | 146.16424 | 28030 ft | 356 kts | 225° |
| 2026-05-07 00:42 | -37.18800 | 146.13854 | 27485 ft | 350 kts | 224° |
| 2026-05-07 00:42 | -37.20129 | 146.11330 | 26932 ft | 344 kts | 224° |
| 2026-05-07 00:43 | -37.21435 | 146.08848 | 26420 ft | 338 kts | 223° |
| 2026-05-07 00:43 | -37.22720 | 146.06406 | 25899 ft | 333 kts | 223° |
| 2026-05-07 00:43 | -37.23987 | 146.03998 | 25291 ft | 329 kts | 223° |
| 2026-05-07 00:43 | -37.25237 | 146.01618 | 24844 ft | 323 kts | 223° |
| 2026-05-07 00:44 | -37.26465 | 145.99282 | 24339 ft | 319 kts | 223° |
| 2026-05-07 00:44 | -37.27681 | 145.96966 | 23864 ft | 316 kts | 223° |
| 2026-05-07 00:44 | -37.28885 | 145.94671 | 23301 ft | 313 kts | 223° |
| 2026-05-07 00:44 | -37.30076 | 145.92398 | 22741 ft | 310 kts | 224° |
| 2026-05-07 00:45 | -37.31254 | 145.90149 | 22274 ft | 306 kts | 224° |
| 2026-05-07 00:45 | -37.32418 | 145.87931 | 21742 ft | 302 kts | 224° |
| 2026-05-07 00:45 | -37.33566 | 145.85746 | 21252 ft | 299 kts | 224° |
| 2026-05-07 00:45 | -37.34710 | 145.83570 | 20773 ft | 298 kts | 224° |
| 2026-05-07 00:46 | -37.35845 | 145.81414 | 20284 ft | 299 kts | 225° |
| 2026-05-07 00:46 | -37.36982 | 145.79246 | 19774 ft | 296 kts | 225° |
| 2026-05-07 00:46 | -37.38105 | 145.77100 | 19269 ft | 291 kts | 225° |
| 2026-05-07 00:46 | -37.39210 | 145.74988 | 18800 ft | 287 kts | 225° |
| 2026-05-07 00:47 | -37.40302 | 145.72903 | 18317 ft | 284 kts | 225° |
| 2026-05-07 00:47 | -37.41381 | 145.70843 | 17787 ft | 281 kts | 225° |
| 2026-05-07 00:47 | -37.42452 | 145.68796 | 17291 ft | 280 kts | 226° |
| 2026-05-07 00:47 | -37.43531 | 145.66738 | 16810 ft | 284 kts | 227° |
| 2026-05-07 00:48 | -37.44541 | 145.64566 | 16287 ft | 297 kts | 239° |
| 2026-05-07 00:48 | -37.45052 | 145.62000 | 15834 ft | 309 kts | 254° |
| 2026-05-07 00:48 | -37.45111 | 145.59276 | 15362 ft | 312 kts | 261° |
| 2026-05-07 00:48 | -37.45061 | 145.56555 | 14870 ft | 310 kts | 263° |
| 2026-05-07 00:49 | -37.44997 | 145.53856 | 14395 ft | 307 kts | 264° |
| 2026-05-07 00:49 | -37.44941 | 145.51177 | 13890 ft | 304 kts | 264° |
| 2026-05-07 00:49 | -37.44897 | 145.48564 | 13396 ft | 301 kts | 264° |
| 2026-05-07 00:49 | -37.44864 | 145.45948 | 12920 ft | 297 kts | 263° |
| 2026-05-07 00:50 | -37.44836 | 145.43365 | 12445 ft | 295 kts | 263° |
| 2026-05-07 00:50 | -37.44809 | 145.40792 | 11923 ft | 293 kts | 264° |
| 2026-05-07 00:50 | -37.44780 | 145.38216 | 11365 ft | 294 kts | 264° |
| 2026-05-07 00:50 | -37.44749 | 145.35646 | 10864 ft | 293 kts | 264° |
| 2026-05-07 00:51 | -37.44715 | 145.33118 | 10510 ft | 281 kts | 264° |
| 2026-05-07 00:51 | -37.44692 | 145.31514 | 10305 ft | 271 kts | 264° |
| 2026-05-07 00:51 | -37.44659 | 145.29211 | 10155 ft | 258 kts | 264° |
| 2026-05-07 00:51 | -37.44631 | 145.26972 | 10022 ft | 254 kts | 264° |
| 2026-05-07 00:52 | -37.44605 | 145.24763 | 9668 ft | 250 kts | 263° |
| 2026-05-07 00:52 | -37.44578 | 145.22584 | 9324 ft | 248 kts | 263° |
| 2026-05-07 00:52 | -37.44549 | 145.20435 | 9012 ft | 244 kts | 263° |
| 2026-05-07 00:52 | -37.44521 | 145.18292 | 8705 ft | 246 kts | 263° |
| 2026-05-07 00:53 | -37.44492 | 145.16133 | 8375 ft | 247 kts | 263° |
| 2026-05-07 00:53 | -37.44461 | 145.13982 | 8075 ft | 245 kts | 263° |
| 2026-05-07 00:53 | -37.44430 | 145.11833 | 7739 ft | 245 kts | 264° |
| 2026-05-07 00:53 | -37.44399 | 145.09700 | 7404 ft | 243 kts | 264° |
| 2026-05-07 00:54 | -37.44369 | 145.07574 | 7075 ft | 242 kts | 264° |
| 2026-05-07 00:54 | -37.44337 | 145.05464 | 6746 ft | 241 kts | 264° |
| 2026-05-07 00:54 | -37.44305 | 145.03371 | 6460 ft | 236 kts | 264° |
| 2026-05-07 00:54 | -37.44271 | 145.01350 | 6349 ft | 227 kts | 263° |
| 2026-05-07 00:55 | -37.44241 | 144.99386 | 6072 ft | 225 kts | 263° |
| 2026-05-07 00:55 | -37.44211 | 144.97403 | 5798 ft | 222 kts | 263° |
| 2026-05-07 00:55 | -37.44182 | 144.95488 | 5531 ft | 223 kts | 264° |
| 2026-05-07 00:55 | -37.44224 | 144.93547 | 5258 ft | 220 kts | 255° |
| 2026-05-07 00:56 | -37.44488 | 144.91673 | 4991 ft | 216 kts | 253° |
| 2026-05-07 00:56 | -37.44775 | 144.89812 | 4838 ft | 209 kts | 252° |
| 2026-05-07 00:56 | -37.45040 | 144.88034 | 4727 ft | 206 kts | 252° |
| 2026-05-07 00:56 | -37.45289 | 144.86318 | 4626 ft | 197 kts | 253° |
| 2026-05-07 00:57 | -37.45529 | 144.84639 | 4517 ft | 188 kts | 253° |
| 2026-05-07 00:57 | -37.45750 | 144.83074 | 4421 ft | 181 kts | 252° |
| 2026-05-07 00:57 | -37.46070 | 144.81577 | 4233 ft | 172 kts | 232° |
| 2026-05-07 00:57 | -37.47026 | 144.80818 | 4031 ft | 169 kts | 187° |
| 2026-05-07 00:58 | -37.48203 | 144.80893 | 3816 ft | 170 kts | 185° |
| 2026-05-07 00:58 | -37.49391 | 144.80902 | 3546 ft | 170 kts | 183° |
| 2026-05-07 00:58 | -37.50540 | 144.80989 | 3310 ft | 160 kts | 183° |
| 2026-05-07 00:58 | -37.51609 | 144.81043 | 3223 ft | 149 kts | 184° |
| 2026-05-07 00:59 | -37.53560 | 144.81302 | 2844 ft | 133 kts | 180° |
| 2026-05-07 00:59 | -37.54425 | 144.81458 | 2699 ft | 118 kts | 181° |
| 2026-05-07 00:59 | -37.55211 | 144.81601 | 2533 ft | 113 kts | 181° |
| 2026-05-07 01:00 | -37.55989 | 144.81744 | 2376 ft | 113 kts | 181° |
| 2026-05-07 01:00 | -37.56774 | 144.81890 | 2209 ft | 113 kts | 182° |
| 2026-05-07 01:00 | -37.57544 | 144.82034 | 2044 ft | 112 kts | 182° |
| 2026-05-07 01:00 | -37.58312 | 144.82178 | 1907 ft | 112 kts | 183° |
| 2026-05-07 01:01 | -37.59074 | 144.82321 | 1742 ft | 108 kts | 182° |
| 2026-05-07 01:01 | -37.59806 | 144.82459 | 1598 ft | 108 kts | 183° |
| 2026-05-07 01:01 | -37.60581 | 144.82600 | 1443 ft | 119 kts | 178° |
| 2026-05-07 01:01 | -37.61415 | 144.82759 | 1251 ft | 119 kts | 180° |
| 2026-05-07 01:02 | -37.62226 | 144.82910 | 1077 ft | 122 kts | 176° |
| 2026-05-07 01:02 | -37.63077 | 144.83074 | 969 ft | 126 kts | 176° |
| 2026-05-07 01:02 | -37.63932 | 144.83260 | 812 ft | 121 kts | 179° |
| 2026-05-07 01:02 | -37.64767 | 144.83385 | 649 ft | 123 kts | 178° |
| 2026-05-07 01:03 | -37.65625 | 144.83554 | 480 ft | 124 kts | 177° |
| 2026-05-07 01:03 | -37.66421 | 144.83695 | 407 ft | 95 kts | 171° |
| 2026-05-07 01:03 | -37.66859 | 144.83781 | 391 ft | 39 kts | 171° |
| 2026-05-07 01:03 | -37.67075 | 144.83898 | 382 ft | 27 kts | 143° |
| 2026-05-07 01:04 | -37.67147 | 144.83968 | 380 ft | 1 kts | 141° |
| 2026-05-07 01:04 | -37.67165 | 144.83987 | 379 ft | 6 kts | 141° |
| 2026-05-07 01:04 | -37.67210 | 144.84041 | 378 ft | 11 kts | 125° |
| 2026-05-07 01:05 | -37.67221 | 144.84136 | 378 ft | 11 kts | 85° |
| 2026-05-07 01:05 | -37.67189 | 144.84219 | 380 ft | 8 kts | 43° |
| 2026-05-07 01:05 | -37.67174 | 144.84235 | 381 ft | 0 kts | 40° |
| 2026-05-07 01:05 | -37.67156 | 144.84246 | 381 ft | 7 kts | 18° |
| 2026-05-07 01:06 | -37.67108 | 144.84252 | 383 ft | 7 kts | 355° |
| 2026-05-07 01:06 | -37.67068 | 144.84279 | 384 ft | 7 kts | 58° |
| 2026-05-07 01:06 | -37.67053 | 144.84354 | 385 ft | 9 kts | 80° |
| 2026-05-07 01:06 | -37.67041 | 144.84425 | 387 ft | 8 kts | 69° |
| 2026-05-07 01:07 | -37.67019 | 144.84488 | 388 ft | 8 kts | 80° |
| 2026-05-07 01:07 | -37.67014 | 144.84555 | 389 ft | 8 kts | 84° |
| 2026-05-07 01:07 | -37.67008 | 144.84620 | 390 ft | 7 kts | 80° |
| 2026-05-07 01:07 | -37.67018 | 144.84665 | 391 ft | 6 kts | 174° |
| 2026-05-07 01:08 | -37.67048 | 144.84671 | 390 ft | 4 kts | 171° |
| 2026-05-07 01:08 | -37.67062 | 144.84674 | 390 ft | 1 kts | 171° |
| 2026-05-07 01:08 | -37.67063 | 144.84674 | 390 ft | 0 kts | 172° |
| 2026-05-07 01:12 | -37.67067 | 144.84675 | 390 ft | 0 kts | 171° |